sensor_id;sensor_type;location;lat;lon;timestamp;pressure;altitude;pressure_sealevel;temperature;humidity
77793;BME280;66983;51.438;5.438;2023-06-14T00:00:39;101204.13;;;21.94;40.41
77793;BME280;66983;51.438;5.438;2023-06-14T00:03:09;101206.97;;;21.92;40.35
77793;BME280;66983;51.438;5.438;2023-06-14T00:05:43;101204.38;;;21.91;40.00
77793;BME280;66983;51.438;5.438;2023-06-14T00:08:09;101215.47;;;21.88;39.71
77793;BME280;66983;51.438;5.438;2023-06-14T00:10:36;101209.41;;;21.84;39.69
77793;BME280;66983;51.438;5.438;2023-06-14T00:13:02;101208.84;;;21.81;40.34
77793;BME280;66983;51.438;5.438;2023-06-14T00:15:31;101210.69;;;21.80;39.82
77793;BME280;66983;51.438;5.438;2023-06-14T00:17:59;101214.63;;;21.76;40.19
77793;BME280;66983;51.438;5.438;2023-06-14T00:20:31;101213.00;;;21.74;38.98
77793;BME280;66983;51.438;5.438;2023-06-14T00:23:01;101225.22;;;21.68;39.43
77793;BME280;66983;51.438;5.438;2023-06-14T00:25:27;101223.59;;;21.65;39.80
77793;BME280;66983;51.438;5.438;2023-06-14T00:27:53;101222.84;;;21.63;39.72
77793;BME280;66983;51.438;5.438;2023-06-14T00:30:19;101223.97;;;21.61;39.42
77793;BME280;66983;51.438;5.438;2023-06-14T00:32:45;101225.94;;;21.59;39.37
77793;BME280;66983;51.438;5.438;2023-06-14T00:35:12;101222.75;;;21.54;40.36
77793;BME280;66983;51.438;5.438;2023-06-14T00:37:39;101230.38;;;21.49;40.03
77793;BME280;66983;51.438;5.438;2023-06-14T00:40:06;101229.84;;;21.44;39.51
77793;BME280;66983;51.438;5.438;2023-06-14T00:42:32;101225.53;;;21.41;39.91
77793;BME280;66983;51.438;5.438;2023-06-14T00:45:00;101224.78;;;21.39;39.45
77793;BME280;66983;51.438;5.438;2023-06-14T00:47:26;101218.84;;;21.34;39.98
77793;BME280;66983;51.438;5.438;2023-06-14T00:49:53;101220.97;;;21.30;39.95
77793;BME280;66983;51.438;5.438;2023-06-14T00:52:20;101222.06;;;21.28;40.39
77793;BME280;66983;51.438;5.438;2023-06-14T00:54:46;101224.78;;;21.28;40.36
77793;BME280;66983;51.438;5.438;2023-06-14T00:57:12;101224.16;;;21.24;40.12
77793;BME280;66983;51.438;5.438;2023-06-14T00:59:45;101228.06;;;21.20;39.53
77793;BME280;66983;51.438;5.438;2023-06-14T01:02:12;101221.25;;;21.15;40.06
77793;BME280;66983;51.438;5.438;2023-06-14T01:04:40;101234.03;;;21.13;39.87
77793;BME280;66983;51.438;5.438;2023-06-14T01:07:46;101228.00;;;21.09;40.66
77793;BME280;66983;51.438;5.438;2023-06-14T01:15:55;101228.72;;;21.00;40.07
77793;BME280;66983;51.438;5.438;2023-06-14T01:18:22;101228.19;;;20.95;39.76
77793;BME280;66983;51.438;5.438;2023-06-14T01:20:50;101228.19;;;20.95;39.85
77793;BME280;66983;51.438;5.438;2023-06-14T01:23:20;101227.69;;;20.90;39.78
77793;BME280;66983;51.438;5.438;2023-06-14T01:25:46;101235.06;;;20.88;41.08
77793;BME280;66983;51.438;5.438;2023-06-14T01:28:14;101230.84;;;20.84;40.17
77793;BME280;66983;51.438;5.438;2023-06-14T01:30:44;101234.91;;;20.78;40.81
77793;BME280;66983;51.438;5.438;2023-06-14T01:33:15;101230.59;;;20.76;40.21
77793;BME280;66983;51.438;5.438;2023-06-14T01:35:46;101229.94;;;20.72;39.89
77793;BME280;66983;51.438;5.438;2023-06-14T01:38:14;101223.78;;;20.70;39.58
77793;BME280;66983;51.438;5.438;2023-06-14T01:40:40;101227.56;;;20.67;40.08
77793;BME280;66983;51.438;5.438;2023-06-14T01:43:09;101232.25;;;20.65;40.57
77793;BME280;66983;51.438;5.438;2023-06-14T01:45:36;101229.41;;;20.67;39.65
77793;BME280;66983;51.438;5.438;2023-06-14T01:48:03;101229.63;;;20.64;40.56
77793;BME280;66983;51.438;5.438;2023-06-14T01:50:30;101230.84;;;20.60;40.30
77793;BME280;66983;51.438;5.438;2023-06-14T01:52:57;101227.59;;;20.55;40.18
77793;BME280;66983;51.438;5.438;2023-06-14T01:55:22;101230.44;;;20.53;40.63
77793;BME280;66983;51.438;5.438;2023-06-14T01:57:50;101224.50;;;20.48;40.26
77793;BME280;66983;51.438;5.438;2023-06-14T02:00:17;101227.22;;;20.48;40.72
77793;BME280;66983;51.438;5.438;2023-06-14T02:02:43;101230.03;;;20.47;40.39
77793;BME280;66983;51.438;5.438;2023-06-14T02:05:09;101225.59;;;20.46;39.81
77793;BME280;66983;51.438;5.438;2023-06-14T02:07:36;101231.13;;;20.44;40.24
77793;BME280;66983;51.438;5.438;2023-06-14T02:10:05;101234.19;;;20.40;40.02
77793;BME280;66983;51.438;5.438;2023-06-14T02:12:31;101227.13;;;20.37;40.06
77793;BME280;66983;51.438;5.438;2023-06-14T02:14:57;101233.94;;;20.30;41.45
77793;BME280;66983;51.438;5.438;2023-06-14T02:17:23;101232.47;;;20.26;40.66
77793;BME280;66983;51.438;5.438;2023-06-14T02:19:49;101230.84;;;20.23;41.01
77793;BME280;66983;51.438;5.438;2023-06-14T02:22:16;101228.69;;;20.16;41.92
77793;BME280;66983;51.438;5.438;2023-06-14T02:24:42;101228.69;;;20.16;40.72
77793;BME280;66983;51.438;5.438;2023-06-14T02:27:08;101233.34;;;20.14;40.82
77793;BME280;66983;51.438;5.438;2023-06-14T02:29:36;101228.16;;;20.11;41.05
77793;BME280;66983;51.438;5.438;2023-06-14T02:32:04;101235.72;;;20.06;41.23
77793;BME280;66983;51.438;5.438;2023-06-14T02:34:30;101242.34;;;20.02;41.58
77793;BME280;66983;51.438;5.438;2023-06-14T02:36:55;101247.63;;;20.03;40.85
77793;BME280;66983;51.438;5.438;2023-06-14T02:39:22;101239.63;;;20.02;40.60
77793;BME280;66983;51.438;5.438;2023-06-14T02:41:49;101243.44;;;19.99;41.02
77793;BME280;66983;51.438;5.438;2023-06-14T02:44:18;101244.44;;;19.98;40.89
77793;BME280;66983;51.438;5.438;2023-06-14T02:46:47;101244.63;;;19.95;40.70
77793;BME280;66983;51.438;5.438;2023-06-14T02:49:12;101247.44;;;19.93;41.14
77793;BME280;66983;51.438;5.438;2023-06-14T02:51:38;101238.56;;;19.91;40.69
77793;BME280;66983;51.438;5.438;2023-06-14T02:54:04;101245.94;;;19.89;41.55
77793;BME280;66983;51.438;5.438;2023-06-14T02:56:29;101240.97;;;19.83;40.63
77793;BME280;66983;51.438;5.438;2023-06-14T02:58:56;101245.72;;;19.80;41.53
77793;BME280;66983;51.438;5.438;2023-06-14T03:01:25;101246.69;;;19.79;41.97
77793;BME280;66983;51.438;5.438;2023-06-14T03:04:00;101242.59;;;19.73;42.18
77793;BME280;66983;51.438;5.438;2023-06-14T03:06:28;101245.53;;;19.70;42.38
77793;BME280;66983;51.438;5.438;2023-06-14T03:08:57;101254.59;;;19.69;42.23
77793;BME280;66983;51.438;5.438;2023-06-14T03:11:28;101250.38;;;19.65;41.98
77793;BME280;66983;51.438;5.438;2023-06-14T03:13:54;101267.69;;;19.62;42.03
77793;BME280;66983;51.438;5.438;2023-06-14T03:16:21;101266.06;;;19.60;41.39
77793;BME280;66983;51.438;5.438;2023-06-14T03:18:51;101267.13;;;19.57;41.95
77793;BME280;66983;51.438;5.438;2023-06-14T03:21:19;101264.44;;;19.57;41.76
77793;BME280;66983;51.438;5.438;2023-06-14T03:23:46;101263.88;;;19.52;41.88
77793;BME280;66983;51.438;5.438;2023-06-14T03:26:12;101260.63;;;19.47;42.71
77793;BME280;66983;51.438;5.438;2023-06-14T03:28:47;101258.03;;;19.46;42.24
77793;BME280;66983;51.438;5.438;2023-06-14T03:31:15;101269.81;;;19.45;42.51
77793;BME280;66983;51.438;5.438;2023-06-14T03:33:41;101261.03;;;19.41;41.78
77793;BME280;66983;51.438;5.438;2023-06-14T03:36:07;101273.91;;;19.38;42.24
77793;BME280;66983;51.438;5.438;2023-06-14T03:38:33;101272.16;;;19.37;42.96
77793;BME280;66983;51.438;5.438;2023-06-14T03:40:59;101271.97;;;19.40;41.73
77793;BME280;66983;51.438;5.438;2023-06-14T03:43:24;101272.94;;;19.39;43.00
77793;BME280;66983;51.438;5.438;2023-06-14T03:45:51;101276.59;;;19.38;42.56
77793;BME280;66983;51.438;5.438;2023-06-14T03:48:17;101278.53;;;19.36;42.63
77793;BME280;66983;51.438;5.438;2023-06-14T03:50:43;101270.63;;;19.32;42.35
77793;BME280;66983;51.438;5.438;2023-06-14T03:53:09;101271.72;;;19.30;42.59
77793;BME280;66983;51.438;5.438;2023-06-14T03:55:39;101280.13;;;19.25;43.31
77793;BME280;66983;51.438;5.438;2023-06-14T03:58:04;101266.97;;;19.21;42.83
77793;BME280;66983;51.438;5.438;2023-06-14T04:00:31;101275.06;;;19.21;42.71
77793;BME280;66983;51.438;5.438;2023-06-14T04:02:58;101269.00;;;19.17;43.36
77793;BME280;66983;51.438;5.438;2023-06-14T04:05:24;101276.13;;;19.18;42.91
77793;BME280;66983;51.438;5.438;2023-06-14T04:07:53;101286.09;;;19.18;42.39
77793;BME280;66983;51.438;5.438;2023-06-14T04:10:21;101279.81;;;19.17;43.50
77793;BME280;66983;51.438;5.438;2023-06-14T04:12:47;101285.31;;;19.16;43.29
77793;BME280;66983;51.438;5.438;2023-06-14T04:15:12;101282.63;;;19.16;43.00
77793;BME280;66983;51.438;5.438;2023-06-14T04:17:39;101296.44;;;19.11;43.29
77793;BME280;66983;51.438;5.438;2023-06-14T04:20:06;101295.66;;;19.09;44.90
77793;BME280;66983;51.438;5.438;2023-06-14T04:22:34;101292.97;;;19.09;44.37
77793;BME280;66983;51.438;5.438;2023-06-14T04:25:00;101296.72;;;19.07;44.48
77793;BME280;66983;51.438;5.438;2023-06-14T04:27:27;101300.31;;;19.07;43.82
77793;BME280;66983;51.438;5.438;2023-06-14T04:29:54;101298.56;;;19.06;42.91
77793;BME280;66983;51.438;5.438;2023-06-14T04:32:30;101296.84;;;19.05;43.79
77793;BME280;66983;51.438;5.438;2023-06-14T04:34:59;101294.22;;;19.04;45.07
77793;BME280;66983;51.438;5.438;2023-06-14T04:37:30;101296.06;;;19.03;44.79
77793;BME280;66983;51.438;5.438;2023-06-14T04:39:56;101296.63;;;19.08;43.79
77793;BME280;66983;51.438;5.438;2023-06-14T04:42:23;101299.13;;;19.11;44.24
77793;BME280;66983;51.438;5.438;2023-06-14T04:44:51;101296.69;;;19.21;43.66
77793;BME280;66983;51.438;5.438;2023-06-14T04:47:21;101311.38;;;19.29;45.05
77793;BME280;66983;51.438;5.438;2023-06-14T04:49:47;101302.78;;;19.37;45.01
77793;BME280;66983;51.438;5.438;2023-06-14T04:52:13;101306.69;;;19.46;44.68
77793;BME280;66983;51.438;5.438;2023-06-14T04:54:40;101303.47;;;19.53;42.58
77793;BME280;66983;51.438;5.438;2023-06-14T04:57:11;101305.88;;;19.58;44.94
77793;BME280;66983;51.438;5.438;2023-06-14T04:59:44;101307.59;;;19.59;44.60
77793;BME280;66983;51.438;5.438;2023-06-14T05:02:10;101309.69;;;19.68;44.47
77793;BME280;66983;51.438;5.438;2023-06-14T05:04:37;101306.00;;;19.69;43.92
77793;BME280;66983;51.438;5.438;2023-06-14T05:07:08;101308.50;;;19.72;44.63
77793;BME280;66983;51.438;5.438;2023-06-14T05:09:35;101309.25;;;19.74;42.75
77793;BME280;66983;51.438;5.438;2023-06-14T05:12:02;101308.38;;;19.74;46.17
77793;BME280;66983;51.438;5.438;2023-06-14T05:14:27;101318.09;;;19.76;45.07
77793;BME280;66983;51.438;5.438;2023-06-14T05:16:56;101308.03;;;19.78;44.74
77793;BME280;66983;51.438;5.438;2023-06-14T05:19:22;101319.41;;;19.83;44.06
77793;BME280;66983;51.438;5.438;2023-06-14T05:21:48;101319.97;;;19.88;44.14
77793;BME280;66983;51.438;5.438;2023-06-14T05:24:14;101320.50;;;19.93;44.63
77793;BME280;66983;51.438;5.438;2023-06-14T05:26:40;101325.59;;;19.98;44.11
77793;BME280;66983;51.438;5.438;2023-06-14T05:29:06;101319.44;;;19.96;44.22
77793;BME280;66983;51.438;5.438;2023-06-14T05:31:32;101323.13;;;19.95;45.20
77793;BME280;66983;51.438;5.438;2023-06-14T05:33:58;101323.00;;;19.96;44.80
77793;BME280;66983;51.438;5.438;2023-06-14T05:36:23;101315.66;;;19.98;44.50
77793;BME280;66983;51.438;5.438;2023-06-14T05:38:49;101327.63;;;20.07;45.00
77793;BME280;66983;51.438;5.438;2023-06-14T05:41:16;101337.50;;;20.08;45.27
77793;BME280;66983;51.438;5.438;2023-06-14T05:43:42;101334.78;;;20.08;45.29
77793;BME280;66983;51.438;5.438;2023-06-14T05:46:07;101337.38;;;20.10;46.14
77793;BME280;66983;51.438;5.438;2023-06-14T05:48:33;101331.88;;;20.11;45.83
77793;BME280;66983;51.438;5.438;2023-06-14T05:50:59;101337.81;;;20.16;46.17
77793;BME280;66983;51.438;5.438;2023-06-14T05:53:24;101341.19;;;20.20;45.71
77793;BME280;66983;51.438;5.438;2023-06-14T05:55:51;101336.31;;;20.25;46.06
77793;BME280;66983;51.438;5.438;2023-06-14T05:58:21;101335.97;;;20.29;45.66
77793;BME280;66983;51.438;5.438;2023-06-14T06:00:47;101344.94;;;20.30;44.03
77793;BME280;66983;51.438;5.438;2023-06-14T06:03:12;101351.69;;;20.37;45.60
77793;BME280;66983;51.438;5.438;2023-06-14T06:05:39;101354.09;;;20.42;43.10
77793;BME280;66983;51.438;5.438;2023-06-14T06:08:05;101351.38;;;20.42;45.51
77793;BME280;66983;51.438;5.438;2023-06-14T06:10:31;101350.06;;;20.47;45.69
77793;BME280;66983;51.438;5.438;2023-06-14T06:12:56;101355.03;;;20.53;44.64
77793;BME280;66983;51.438;5.438;2023-06-14T06:15:22;101362.06;;;20.56;45.59
77793;BME280;66983;51.438;5.438;2023-06-14T06:17:47;101353.50;;;20.62;43.01
77793;BME280;66983;51.438;5.438;2023-06-14T06:20:13;101355.88;;;20.66;42.90
77793;BME280;66983;51.438;5.438;2023-06-14T06:22:39;101365.41;;;20.72;42.97
77793;BME280;66983;51.438;5.438;2023-06-14T06:25:04;101372.34;;;20.76;45.10
77793;BME280;66983;51.438;5.438;2023-06-14T06:27:32;101366.97;;;20.87;42.35
77793;BME280;66983;51.438;5.438;2023-06-14T06:29:57;101363.81;;;20.93;43.58
77793;BME280;66983;51.438;5.438;2023-06-14T06:32:23;101367.19;;;20.97;42.56
77793;BME280;66983;51.438;5.438;2023-06-14T06:34:48;101369.44;;;21.03;43.72
77793;BME280;66983;51.438;5.438;2023-06-14T06:37:14;101372.41;;;21.11;42.09
77793;BME280;66983;51.438;5.438;2023-06-14T06:39:39;101368.72;;;21.12;42.39
77793;BME280;66983;51.438;5.438;2023-06-14T06:42:05;101374.56;;;21.19;43.29
77793;BME280;66983;51.438;5.438;2023-06-14T06:44:36;101382.28;;;21.25;44.63
77793;BME280;66983;51.438;5.438;2023-06-14T06:47:02;101391.81;;;21.30;44.65
77793;BME280;66983;51.438;5.438;2023-06-14T06:49:27;101397.97;;;21.32;42.65
77793;BME280;66983;51.438;5.438;2023-06-14T06:52:06;101397.50;;;21.39;42.83
77793;BME280;66983;51.438;5.438;2023-06-14T06:54:33;101391.63;;;21.45;41.86
77793;BME280;66983;51.438;5.438;2023-06-14T06:56:59;101398.66;;;21.47;42.46
77793;BME280;66983;51.438;5.438;2023-06-14T06:59:25;101389.19;;;21.53;41.02
77793;BME280;66983;51.438;5.438;2023-06-14T07:01:50;101395.00;;;21.59;41.97
77793;BME280;66983;51.438;5.438;2023-06-14T07:04:16;101399.63;;;21.70;42.33
77793;BME280;66983;51.438;5.438;2023-06-14T07:06:42;101399.28;;;21.75;40.33
77793;BME280;66983;51.438;5.438;2023-06-14T07:09:08;101407.19;;;21.78;40.42
77793;BME280;66983;51.438;5.438;2023-06-14T07:11:38;101394.63;;;21.88;39.28
77793;BME280;66983;51.438;5.438;2023-06-14T07:14:05;101404.13;;;21.93;41.36
77793;BME280;66983;51.438;5.438;2023-06-14T07:16:30;101404.66;;;21.98;39.53
77793;BME280;66983;51.438;5.438;2023-06-14T07:18:56;101399.03;;;22.02;40.39
77793;BME280;66983;51.438;5.438;2023-06-14T07:21:21;101401.13;;;22.09;37.96
77793;BME280;66983;51.438;5.438;2023-06-14T07:23:47;101411.63;;;22.14;38.26
77793;BME280;66983;51.438;5.438;2023-06-14T07:26:13;101409.19;;;22.22;39.56
77793;BME280;66983;51.438;5.438;2023-06-14T07:28:38;101414.75;;;22.31;39.22
77793;BME280;66983;51.438;5.438;2023-06-14T07:31:04;101410.78;;;22.35;38.21
77793;BME280;66983;51.438;5.438;2023-06-14T07:33:29;101412.28;;;22.40;38.75
77793;BME280;66983;51.438;5.438;2023-06-14T07:35:55;101417.22;;;22.46;38.57
77793;BME280;66983;51.438;5.438;2023-06-14T07:38:21;101411.19;;;22.53;38.23
77793;BME280;66983;51.438;5.438;2023-06-14T07:40:46;101421.69;;;22.58;37.50
77793;BME280;66983;51.438;5.438;2023-06-14T07:43:12;101424.88;;;22.63;38.72
77793;BME280;66983;51.438;5.438;2023-06-14T07:45:37;101424.41;;;22.69;37.98
77793;BME280;66983;51.438;5.438;2023-06-14T07:48:03;101432.72;;;22.79;38.56
77793;BME280;66983;51.438;5.438;2023-06-14T07:50:29;101436.06;;;22.82;38.35
77793;BME280;66983;51.438;5.438;2023-06-14T07:52:55;101425.81;;;22.86;36.98
77793;BME280;66983;51.438;5.438;2023-06-14T07:55:21;101438.75;;;22.93;37.82
77793;BME280;66983;51.438;5.438;2023-06-14T07:57:46;101431.97;;;22.99;37.65
77793;BME280;66983;51.438;5.438;2023-06-14T08:00:12;101441.00;;;22.99;38.09
77793;BME280;66983;51.438;5.438;2023-06-14T08:02:41;101441.00;;;23.11;37.39
77793;BME280;66983;51.438;5.438;2023-06-14T08:05:10;101448.25;;;23.21;36.25
77793;BME280;66983;51.438;5.438;2023-06-14T08:07:41;101447.13;;;23.24;37.84
77793;BME280;66983;51.438;5.438;2023-06-14T08:10:08;101457.41;;;23.20;36.95
77793;BME280;66983;51.438;5.438;2023-06-14T08:12:33;101455.53;;;23.21;35.91
77793;BME280;66983;51.438;5.438;2023-06-14T08:15:00;101449.00;;;23.23;36.87
77793;BME280;66983;51.438;5.438;2023-06-14T08:17:25;101448.88;;;23.25;35.80
77793;BME280;66983;51.438;5.438;2023-06-14T08:19:52;101444.66;;;23.32;35.76
77793;BME280;66983;51.438;5.438;2023-06-14T08:22:20;101444.16;;;23.38;37.16
77793;BME280;66983;51.438;5.438;2023-06-14T08:24:47;101445.72;;;23.41;34.94
77793;BME280;66983;51.438;5.438;2023-06-14T08:27:13;101451.91;;;23.43;36.32
77793;BME280;66983;51.438;5.438;2023-06-14T08:29:38;101439.91;;;23.45;34.66
77793;BME280;66983;51.438;5.438;2023-06-14T08:32:06;101430.50;;;23.49;35.31
77793;BME280;66983;51.438;5.438;2023-06-14T08:34:32;101436.47;;;23.54;35.96
77793;BME280;66983;51.438;5.438;2023-06-14T08:36:57;101444.13;;;23.60;36.15
77793;BME280;66983;51.438;5.438;2023-06-14T08:39:23;101442.00;;;23.64;36.75
77793;BME280;66983;51.438;5.438;2023-06-14T08:41:52;101442.94;;;23.74;35.53
77793;BME280;66983;51.438;5.438;2023-06-14T08:44:18;101434.50;;;23.77;34.24
77793;BME280;66983;51.438;5.438;2023-06-14T08:46:43;101444.88;;;23.83;34.79
77793;BME280;66983;51.438;5.438;2023-06-14T08:49:12;101445.22;;;23.90;34.84
77793;BME280;66983;51.438;5.438;2023-06-14T08:51:38;101434.06;;;23.93;34.43
77793;BME280;66983;51.438;5.438;2023-06-14T08:54:06;101440.09;;;23.96;35.62
77793;BME280;66983;51.438;5.438;2023-06-14T08:56:32;101433.53;;;23.99;34.71
77793;BME280;66983;51.438;5.438;2023-06-14T08:59:00;101437.59;;;24.05;35.33
77793;BME280;66983;51.438;5.438;2023-06-14T09:01:36;101443.66;;;24.08;34.78
77793;BME280;66983;51.438;5.438;2023-06-14T09:04:02;101436.53;;;24.17;35.22
77793;BME280;66983;51.438;5.438;2023-06-14T09:06:31;101445.16;;;24.22;33.07
77793;BME280;66983;51.438;5.438;2023-06-14T09:08:57;101445.81;;;24.25;33.55
77793;BME280;66983;51.438;5.438;2023-06-14T09:11:23;101437.22;;;24.30;32.86
77793;BME280;66983;51.438;5.438;2023-06-14T09:13:49;101437.81;;;24.33;33.37
77793;BME280;66983;51.438;5.438;2023-06-14T09:16:16;101440.16;;;24.38;32.71
77793;BME280;66983;51.438;5.438;2023-06-14T09:18:44;101438.16;;;24.40;33.62
77793;BME280;66983;51.438;5.438;2023-06-14T09:21:11;101436.72;;;24.46;34.86
77793;BME280;66983;51.438;5.438;2023-06-14T09:23:38;101438.19;;;24.50;35.04
77793;BME280;66983;51.438;5.438;2023-06-14T09:26:13;101439.78;;;24.52;33.22
77793;BME280;66983;51.438;5.438;2023-06-14T09:28:42;101438.41;;;24.58;30.19
77793;BME280;66983;51.438;5.438;2023-06-14T09:31:14;101437.13;;;24.62;31.07
77793;BME280;66983;51.438;5.438;2023-06-14T09:33:44;101438.59;;;24.66;30.33
77793;BME280;66983;51.438;5.438;2023-06-14T09:36:17;101450.53;;;24.75;29.23
77793;BME280;66983;51.438;5.438;2023-06-14T09:38:55;101455.72;;;24.78;26.96
77793;BME280;66983;51.438;5.438;2023-06-14T09:41:40;101453.97;;;24.77;28.76
77793;BME280;66983;51.438;5.438;2023-06-14T09:44:07;101451.25;;;24.77;29.44
77793;BME280;66983;51.438;5.438;2023-06-14T09:46:34;101448.25;;;24.80;30.50
77793;BME280;66983;51.438;5.438;2023-06-14T09:49:01;101443.25;;;24.85;30.42
77793;BME280;66983;51.438;5.438;2023-06-14T09:51:28;101448.44;;;24.88;29.24
77793;BME280;66983;51.438;5.438;2023-06-14T09:54:02;101454.34;;;24.93;29.02
77793;BME280;66983;51.438;5.438;2023-06-14T09:58:59;101443.91;;;24.98;28.37
77793;BME280;66983;51.438;5.438;2023-06-14T10:01:26;101448.09;;;25.02;27.81
77793;BME280;66983;51.438;5.438;2023-06-14T10:04:02;101457.72;;;25.06;27.66
77793;BME280;66983;51.438;5.438;2023-06-14T10:06:29;101444.81;;;25.08;26.72
77793;BME280;66983;51.438;5.438;2023-06-14T10:08:59;101443.94;;;25.08;29.24
77793;BME280;66983;51.438;5.438;2023-06-14T10:11:28;101442.09;;;25.08;28.04
77793;BME280;66983;51.438;5.438;2023-06-14T10:13:56;101445.69;;;25.09;27.53
77793;BME280;66983;51.438;5.438;2023-06-14T10:16:39;101441.81;;;25.11;26.62
77793;BME280;66983;51.438;5.438;2023-06-14T10:22:06;101437.41;;;25.20;27.47
77793;BME280;66983;51.438;5.438;2023-06-14T10:24:39;101450.59;;;25.24;29.04
77793;BME280;66983;51.438;5.438;2023-06-14T10:27:07;101443.13;;;25.26;27.43
77793;BME280;66983;51.438;5.438;2023-06-14T10:32:27;101446.59;;;25.28;29.85
77793;BME280;66983;51.438;5.438;2023-06-14T10:34:58;101438.13;;;25.31;28.89
77793;BME280;66983;51.438;5.438;2023-06-14T10:37:25;101444.88;;;25.37;29.68
77793;BME280;66983;51.438;5.438;2023-06-14T10:39:51;101438.88;;;25.43;28.84
77793;BME280;66983;51.438;5.438;2023-06-14T10:42:16;101446.34;;;25.51;28.18
77793;BME280;66983;51.438;5.438;2023-06-14T10:44:43;101447.78;;;25.55;29.02
77793;BME280;66983;51.438;5.438;2023-06-14T10:47:28;101451.22;;;25.57;28.12
77793;BME280;66983;51.438;5.438;2023-06-14T10:50:02;101449.94;;;25.61;29.65
77793;BME280;66983;51.438;5.438;2023-06-14T10:52:29;101444.25;;;25.64;28.55
77793;BME280;66983;51.438;5.438;2023-06-14T10:57:44;101458.47;;;25.77;28.57
77793;BME280;66983;51.438;5.438;2023-06-14T11:00:12;101453.00;;;25.77;27.89
77793;BME280;66983;51.438;5.438;2023-06-14T11:05:27;101453.44;;;25.82;29.01
77793;BME280;66983;51.438;5.438;2023-06-14T11:10:50;101452.28;;;25.85;28.10
77793;BME280;66983;51.438;5.438;2023-06-14T11:13:16;101452.44;;;25.83;27.85
77793;BME280;66983;51.438;5.438;2023-06-14T11:15:47;101447.25;;;25.80;27.84
77793;BME280;66983;51.438;5.438;2023-06-14T11:18:14;101449.72;;;25.83;30.07
77793;BME280;66983;51.438;5.438;2023-06-14T11:20:42;101440.50;;;25.84;29.13
77793;BME280;66983;51.438;5.438;2023-06-14T11:23:07;101435.47;;;25.89;29.71
77793;BME280;66983;51.438;5.438;2023-06-14T11:25:33;101434.03;;;25.95;30.46
77793;BME280;66983;51.438;5.438;2023-06-14T11:27:58;101434.63;;;25.98;27.78
77793;BME280;66983;51.438;5.438;2023-06-14T11:30:24;101435.63;;;25.97;29.73
77793;BME280;66983;51.438;5.438;2023-06-14T11:32:52;101431.88;;;25.98;30.61
77793;BME280;66983;51.438;5.438;2023-06-14T11:35:21;101426.84;;;25.94;29.38
77793;BME280;66983;51.438;5.438;2023-06-14T11:37:52;101430.84;;;25.99;29.46
77793;BME280;66983;51.438;5.438;2023-06-14T11:40:18;101430.84;;;25.99;28.18
77793;BME280;66983;51.438;5.438;2023-06-14T11:42:43;101447.09;;;26.01;30.51
77793;BME280;66983;51.438;5.438;2023-06-14T11:45:11;101434.31;;;26.01;28.26
77793;BME280;66983;51.438;5.438;2023-06-14T11:47:38;101431.44;;;26.03;28.82
77793;BME280;66983;51.438;5.438;2023-06-14T11:50:06;101440.78;;;26.00;28.72
77793;BME280;66983;51.438;5.438;2023-06-14T11:52:34;101430.28;;;26.06;29.14
77793;BME280;66983;51.438;5.438;2023-06-14T11:55:01;101435.59;;;26.07;31.41
77793;BME280;66983;51.438;5.438;2023-06-14T11:57:30;101420.94;;;26.08;29.54
77793;BME280;66983;51.438;5.438;2023-06-14T11:59:55;101426.81;;;26.03;29.81
77793;BME280;66983;51.438;5.438;2023-06-14T12:02:22;101421.78;;;25.99;31.49
77793;BME280;66983;51.438;5.438;2023-06-14T12:04:48;101431.28;;;26.04;29.56
77793;BME280;66983;51.438;5.438;2023-06-14T12:07:15;101425.09;;;26.12;28.75
77793;BME280;66983;51.438;5.438;2023-06-14T12:12:17;101421.75;;;26.28;29.84
77793;BME280;66983;51.438;5.438;2023-06-14T12:14:42;101418.00;;;26.29;29.00
77793;BME280;66983;51.438;5.438;2023-06-14T12:17:08;101426.50;;;26.26;29.59
77793;BME280;66983;51.438;5.438;2023-06-14T12:19:42;101421.75;;;26.28;29.47
77793;BME280;66983;51.438;5.438;2023-06-14T12:22:14;101420.88;;;26.27;30.31
77793;BME280;66983;51.438;5.438;2023-06-14T12:24:43;101424.47;;;26.28;30.21
77793;BME280;66983;51.438;5.438;2023-06-14T12:27:09;101422.50;;;26.30;29.99
77793;BME280;66983;51.438;5.438;2023-06-14T12:29:37;101417.75;;;26.32;29.19
77793;BME280;66983;51.438;5.438;2023-06-14T12:32:03;101415.16;;;26.30;29.21
77793;BME280;66983;51.438;5.438;2023-06-14T12:34:28;101409.94;;;26.27;27.76
77793;BME280;66983;51.438;5.438;2023-06-14T12:36:54;101425.09;;;26.31;29.31
77793;BME280;66983;51.438;5.438;2023-06-14T12:39:20;101427.53;;;26.34;28.37
77793;BME280;66983;51.438;5.438;2023-06-14T12:41:47;101423.94;;;26.34;28.78
77793;BME280;66983;51.438;5.438;2023-06-14T12:44:13;101423.22;;;26.32;30.43
77793;BME280;66983;51.438;5.438;2023-06-14T12:46:39;101421.34;;;26.32;28.70
77793;BME280;66983;51.438;5.438;2023-06-14T12:49:07;101427.53;;;26.34;28.11
77793;BME280;66983;51.438;5.438;2023-06-14T12:51:33;101428.38;;;26.35;27.41
77793;BME280;66983;51.438;5.438;2023-06-14T12:53:58;101417.91;;;26.30;26.90
77793;BME280;66983;51.438;5.438;2023-06-14T12:56:24;101427.69;;;26.33;26.63
77793;BME280;66983;51.438;5.438;2023-06-14T12:58:50;101421.91;;;26.26;28.47
77793;BME280;66983;51.438;5.438;2023-06-14T13:01:15;101422.50;;;26.30;27.73
77793;BME280;66983;51.438;5.438;2023-06-14T13:03:41;101424.78;;;26.25;27.45
77793;BME280;66983;51.438;5.438;2023-06-14T13:06:06;101434.28;;;26.30;28.87
77793;BME280;66983;51.438;5.438;2023-06-14T13:08:32;101438.91;;;26.40;28.54
77793;BME280;66983;51.438;5.438;2023-06-14T13:10:57;101425.94;;;26.42;28.54
77793;BME280;66983;51.438;5.438;2023-06-14T13:13:23;101437.59;;;26.44;30.18
77793;BME280;66983;51.438;5.438;2023-06-14T13:15:49;101425.34;;;26.48;29.26